Weather at Gibraltar Airport

Public forecast

Using degrees Celsius for public forecast. Weather courtesy of forecast.io.

Current aviation weather report (METAR) for Gibraltar Airport

2024/05/30 12:20 (retrieved 30 minutes ago)

LXGB 301220Z 09009KT CAVOK 22/17 Q1012 NOSIG

Closest aviation forecast (TAF) to Gibraltar Airport

Closest forecast is Ceuta Heliport, 15.7 nm (29.0 km) S.

2024/05/30 09:00 (retrieved 4 hours ago)

TAF GECE 300800Z 3009/3109 13008KT 9999 FEW010 SCT020 TX25/3014Z TN17/3105Z PROB40 TEMPO 3009/3011 BKN010 PROB30 TEMPO 3019/3109 3000 BR BKN010